Terminal Aerodrome Forecast
Issued by NWS

Home | Current Version | Previous Version | Text Only | Print | Product List | Glossary On
Versions: 1 2 3 4 5 6 7 8 9 10 11 12 13 14 15 16 17
000
FTUS44 KTSA 020500
TAFFYV
TAF
KFYV 020520Z 0206/0306 18010KT P6SM VCTS SCT050CB BKN150
      TEMPO 0206/0210 VRB15G25KT 3SM -TSRA BKN025CB
     FM021000 18007KT P6SM BKN080
      TEMPO 0210/0214 P6SM -TSRA BKN050CB
     FM030000 16003KT P6SM BKN250=

USA.gov is the U.S. government's official web portal to all federal, state and local government web resources and services.